Time;durP1;ratioP1;P1;durP2;ratioP2;P2;SDS_P1;SDS_P2;PMS_P1;PMS_P2;Temp;Humidity;BMP_temperature;BMP_pressure;BME280_temperature;BME280_humidity;BME280_pressure;Samples;Min_cycle;Max_cycle;Signal;HPM_P1;HPM_P2
2023/10/23 00:02:14;;;;;;;10.50;10.20;;;9.20;99.90;;;;;;5135202;28;20216;-84
2023/10/23 00:04:41;;;;;;;10.37;10.07;;;9.20;99.90;;;;;;5135044;28;20248;-84
2023/10/23 00:07:08;;;;;;;10.30;10.00;;;9.20;99.90;;;;;;5135399;28;20231;-83
2023/10/23 00:09:36;;;;;;;10.33;10.03;;;9.20;99.90;;;;;;5135356;28;20241;-84
2023/10/23 00:12:03;;;;;;;10.30;10.00;;;9.20;99.90;;;;;;5135538;28;20242;-84
2023/10/23 00:14:30;;;;;;;10.33;10.03;;;9.20;99.90;;;;;;5135601;28;20228;-83
2023/10/23 00:16:59;;;;;;;10.20;9.90;;;9.10;99.90;;;;;;5135110;28;20237;-84
2023/10/23 00:19:27;;;;;;;10.10;9.80;;;9.10;99.90;;;;;;5134113;28;20225;-84
2023/10/23 00:21:54;;;;;;;10.17;9.87;;;9.10;99.90;;;;;;5135892;28;20213;-83
2023/10/23 00:24:22;;;;;;;10.20;9.90;;;9.10;99.90;;;;;;5134233;28;20252;-84
2023/10/23 00:26:50;;;;;;;10.10;9.80;;;9.10;99.90;;;;;;5135316;28;20237;-84
2023/10/23 00:29:17;;;;;;;10.10;9.80;;;9.10;99.90;;;;;;5135555;28;20221;-83
2023/10/23 00:31:44;;;;;;;10.20;9.90;;;9.10;99.90;;;;;;5135414;28;20217;-84
2023/10/23 00:34:12;;;;;;;10.30;10.00;;;9.00;99.90;;;;;;5135245;28;20331;-84
2023/10/23 00:36:39;;;;;;;10.10;9.80;;;9.00;99.90;;;;;;5134623;28;20304;-83
2023/10/23 00:39:07;;;;;;;10.00;9.70;;;9.00;99.90;;;;;;5134431;28;20228;-83
2023/10/23 00:41:34;;;;;;;10.00;9.70;;;9.00;99.90;;;;;;5134930;28;20209;-84
2023/10/23 00:44:02;;;;;;;10.10;9.80;;;9.00;99.90;;;;;;5134655;28;20233;-83
2023/10/23 00:46:31;;;;;;;10.10;9.80;;;8.90;99.90;;;;;;5135797;28;20267;-84
2023/10/23 00:48:59;;;;;;;10.00;9.70;;;8.80;99.90;;;;;;5136591;28;20225;-83
2023/10/23 00:51:28;;;;;;;10.30;10.00;;;8.80;99.90;;;;;;5137164;28;20221;-83
2023/10/23 00:53:57;;;;;;;10.30;10.00;;;8.70;99.90;;;;;;5135303;28;20258;-84
2023/10/23 00:56:24;;;;;;;10.30;10.00;;;8.60;99.90;;;;;;5134276;28;20252;-84
2023/10/23 00:58:52;;;;;;;10.10;9.80;;;8.60;99.90;;;;;;5133655;28;20227;-83
2023/10/23 01:01:19;;;;;;;10.33;10.03;;;8.60;99.90;;;;;;5133278;28;20221;-84
2023/10/23 01:03:45;;;;;;;10.30;10.00;;;8.50;99.90;;;;;;5133232;28;20260;-84
2023/10/23 01:06:13;;;;;;;10.10;9.80;;;8.50;99.90;;;;;;5133137;28;20229;-84
2023/10/23 01:08:43;;;;;;;9.93;9.63;;;8.50;99.90;;;;;;5135678;28;20299;-84
2023/10/23 01:11:10;;;;;;;10.03;9.73;;;8.50;99.90;;;;;;5136503;28;20231;-84
2023/10/23 01:13:37;;;;;;;10.20;9.90;;;8.50;99.90;;;;;;5135690;28;20229;-84
2023/10/23 01:16:06;;;;;;;10.40;10.10;;;8.50;99.90;;;;;;5135278;28;20236;-83
2023/10/23 01:18:34;;;;;;;9.93;9.63;;;8.50;99.90;;;;;;5135422;28;20220;-83
2023/10/23 01:21:01;;;;;;;10.03;9.73;;;8.40;99.90;;;;;;5137630;27;20232;-84
2023/10/23 01:23:34;;;;;;;10.20;9.90;;;8.40;99.90;;;;;;5141729;27;20323;-84
2023/10/23 01:26:02;;;;;;;10.23;9.93;;;8.40;99.90;;;;;;5140552;27;20278;-84
2023/10/23 01:28:30;;;;;;;10.50;10.20;;;8.40;99.90;;;;;;5151662;27;20289;-83
2023/10/23 01:30:57;;;;;;;10.30;10.00;;;8.30;99.90;;;;;;5134625;28;20240;-84
2023/10/23 01:33:24;;;;;;;10.30;10.00;;;8.30;99.90;;;;;;5134461;28;20237;-84
2023/10/23 01:35:51;;;;;;;10.20;9.90;;;8.30;99.90;;;;;;5134398;28;20236;-84
2023/10/23 01:38:19;;;;;;;10.60;10.30;;;8.30;99.90;;;;;;5134364;28;20212;-84
2023/10/23 01:40:46;;;;;;;10.30;10.00;;;8.20;99.90;;;;;;5133366;28;20247;-84
2023/10/23 01:43:15;;;;;;;10.40;10.10;;;8.20;99.90;;;;;;5133480;28;20229;-83
2023/10/23 01:45:42;;;;;;;10.13;9.83;;;8.20;99.90;;;;;;5133347;28;20229;-84
2023/10/23 01:48:09;;;;;;;10.10;9.80;;;8.20;99.90;;;;;;5133316;28;21000;-84
2023/10/23 01:50:36;;;;;;;10.23;9.93;;;8.20;99.90;;;;;;5133069;28;20225;-83
2023/10/23 01:53:03;;;;;;;10.10;9.80;;;8.10;99.90;;;;;;5133323;28;20236;-84
2023/10/23 01:55:30;;;;;;;10.00;9.70;;;8.10;99.90;;;;;;5134080;28;20234;-83
2023/10/23 01:57:58;;;;;;;10.30;10.00;;;8.10;99.90;;;;;;5133271;28;20224;-83
2023/10/23 02:00:26;;;;;;;10.20;9.90;;;8.10;99.90;;;;;;5132760;28;20228;-83
2023/10/23 02:02:54;;;;;;;10.50;10.20;;;8.00;99.90;;;;;;5133208;28;20231;-84
2023/10/23 02:05:21;;;;;;;10.30;10.00;;;8.00;99.90;;;;;;5132665;28;20233;-83
2023/10/23 02:07:48;;;;;;;10.50;10.20;;;8.00;99.90;;;;;;5133223;28;20246;-84
2023/10/23 02:10:16;;;;;;;10.10;9.80;;;7.90;99.90;;;;;;5132650;28;20233;-85
2023/10/23 02:12:43;;;;;;;10.17;9.87;;;7.90;99.90;;;;;;5133270;28;20232;-83
2023/10/23 02:15:10;;;;;;;10.20;9.90;;;7.90;99.90;;;;;;5132799;28;20232;-85
2023/10/23 02:17:39;;;;;;;10.20;9.90;;;7.90;99.90;;;;;;5132667;28;20288;-84
2023/10/23 02:20:07;;;;;;;10.00;9.70;;;7.90;99.90;;;;;;5131555;27;20331;-84
2023/10/23 02:22:35;;;;;;;10.27;9.97;;;7.80;99.90;;;;;;5150785;27;20224;-83
2023/10/23 02:25:03;;;;;;;10.10;9.80;;;7.80;99.90;;;;;;5135606;27;20229;-84
2023/10/23 02:27:30;;;;;;;10.17;9.87;;;7.70;99.90;;;;;;5133034;28;20231;-83
2023/10/23 02:29:58;;;;;;;10.33;10.03;;;7.70;99.90;;;;;;5132169;28;20225;-84
2023/10/23 02:32:25;;;;;;;10.20;9.90;;;7.60;99.90;;;;;;5132175;28;20229;-84
2023/10/23 02:34:55;;;;;;;10.47;10.17;;;7.60;99.90;;;;;;5133994;28;20254;-84
2023/10/23 02:37:22;;;;;;;10.30;10.00;;;7.50;99.90;;;;;;5134418;28;20236;-83
2023/10/23 02:39:49;;;;;;;10.30;10.00;;;7.40;99.90;;;;;;5131056;28;20282;-84
2023/10/23 02:42:16;;;;;;;10.30;10.00;;;7.40;99.90;;;;;;5131226;28;20300;-83
2023/10/23 02:44:45;;;;;;;10.17;9.87;;;7.40;99.90;;;;;;5131624;28;20232;-84
2023/10/23 02:47:12;;;;;;;10.30;10.00;;;7.30;99.90;;;;;;5131029;28;20323;-84
2023/10/23 02:49:39;;;;;;;10.70;10.40;;;7.30;99.90;;;;;;5130730;28;20236;-84
2023/10/23 02:52:08;;;;;;;10.60;10.30;;;7.20;99.90;;;;;;5131101;28;20225;-85
2023/10/23 02:54:35;;;;;;;10.37;10.07;;;7.20;99.90;;;;;;5131242;28;20237;-85
2023/10/23 02:57:02;;;;;;;10.57;10.27;;;7.20;99.90;;;;;;5131787;28;20300;-84
2023/10/23 02:59:32;;;;;;;10.30;10.00;;;7.10;99.90;;;;;;5131442;28;20243;-84
2023/10/23 03:01:59;;;;;;;10.40;10.10;;;7.10;99.90;;;;;;5130508;28;20300;-83
2023/10/23 03:04:26;;;;;;;10.27;9.97;;;7.10;99.90;;;;;;5132905;28;20244;-84
2023/10/23 03:06:53;;;;;;;10.40;10.10;;;7.00;99.90;;;;;;5137660;28;20263;-84
2023/10/23 03:09:23;;;;;;;10.20;9.90;;;7.00;99.90;;;;;;5137119;28;20246;-84
2023/10/23 03:11:50;;;;;;;10.30;10.00;;;7.00;99.90;;;;;;5137892;28;20320;-84
2023/10/23 03:14:17;;;;;;;10.40;10.10;;;7.00;99.90;;;;;;5136705;28;20286;-83
2023/10/23 03:16:45;;;;;;;10.47;10.17;;;6.90;99.90;;;;;;5134883;28;20244;-84
2023/10/23 03:19:12;;;;;;;10.40;10.10;;;6.90;99.90;;;;;;5134514;28;20221;-84
2023/10/23 03:21:39;;;;;;;10.30;10.00;;;6.90;99.90;;;;;;5133702;28;20232;-83
2023/10/23 03:24:08;;;;;;;10.07;9.77;;;6.80;99.90;;;;;;5133090;28;20263;-84
2023/10/23 03:26:36;;;;;;;10.40;10.10;;;6.80;99.90;;;;;;5133112;28;20228;-84
2023/10/23 03:29:04;;;;;;;10.40;10.10;;;6.80;99.90;;;;;;5132208;28;20224;-83
2023/10/23 03:31:32;;;;;;;10.40;10.10;;;6.80;99.90;;;;;;5135183;27;20248;-84
2023/10/23 03:34:00;;;;;;;10.40;10.10;;;6.80;99.90;;;;;;5137610;28;20247;-83
2023/10/23 03:36:27;;;;;;;10.40;10.10;;;6.80;99.90;;;;;;5128687;28;20268;-84
2023/10/23 03:38:55;;;;;;;10.20;9.90;;;6.70;99.90;;;;;;5142427;27;20231;-84
2023/10/23 03:41:23;;;;;;;10.53;10.23;;;6.70;99.90;;;;;;5136822;27;20271;-84
2023/10/23 03:43:52;;;;;;;10.30;10.00;;;6.70;99.90;;;;;;5131875;28;20225;-85
2023/10/23 03:46:19;;;;;;;10.30;10.00;;;6.70;99.90;;;;;;5131845;28;20229;-84
2023/10/23 03:48:46;;;;;;;10.33;10.03;;;6.70;99.90;;;;;;5131850;28;20280;-84
2023/10/23 03:51:13;;;;;;;10.20;9.90;;;6.70;99.90;;;;;;5136904;27;20259;-83
2023/10/23 03:53:40;;;;;;;10.20;9.90;;;6.70;99.90;;;;;;5132350;27;20246;-83
2023/10/23 03:56:08;;;;;;;10.40;10.10;;;6.70;99.90;;;;;;5130788;28;20240;-83
2023/10/23 03:58:35;;;;;;;10.10;9.80;;;6.70;99.90;;;;;;5130394;28;20225;-84
2023/10/23 04:01:04;;;;;;;10.40;10.10;;;6.70;99.90;;;;;;5129542;28;20248;-84
2023/10/23 04:03:31;;;;;;;10.17;9.87;;;6.60;99.90;;;;;;5128107;28;20244;-84
2023/10/23 04:05:58;;;;;;;10.20;9.90;;;6.60;99.90;;;;;;5129036;28;20225;-84
2023/10/23 04:08:25;;;;;;;10.50;10.20;;;6.60;99.90;;;;;;5128841;28;20277;-84
2023/10/23 04:10:54;;;;;;;10.17;9.87;;;6.60;99.90;;;;;;5129508;28;20290;-84
2023/10/23 04:13:21;;;;;;;10.13;9.83;;;6.60;99.90;;;;;;5129152;28;20240;-84
2023/10/23 04:15:56;;;;;;;10.20;9.90;;;6.50;99.90;;;;;;5129998;28;20221;-85
2023/10/23 04:18:25;;;;;;;10.23;9.93;;;6.50;99.90;;;;;;5129888;28;20244;-84
2023/10/23 04:21:03;;;;;;;10.17;9.87;;;6.40;99.90;;;;;;5135556;27;20240;-84
2023/10/23 04:23:31;;;;;;;10.10;9.80;;;6.40;99.90;;;;;;5144805;27;20291;-84
2023/10/23 04:25:58;;;;;;;10.13;9.83;;;6.40;99.90;;;;;;5138749;27;20224;-85
2023/10/23 04:28:26;;;;;;;10.20;9.90;;;6.40;99.90;;;;;;5132738;27;20221;-83
2023/10/23 04:30:53;;;;;;;10.07;9.77;;;6.40;99.90;;;;;;5129457;28;20248;-85
2023/10/23 04:33:23;;;;;;;9.80;9.50;;;6.30;99.90;;;;;;5129655;28;20232;-84
2023/10/23 04:35:53;;;;;;;10.00;9.70;;;6.30;99.90;;;;;;5130082;28;20288;-82
2023/10/23 04:38:20;;;;;;;10.00;9.70;;;6.30;99.90;;;;;;5131018;28;20251;-83
2023/10/23 04:40:50;;;;;;;9.70;9.40;;;6.30;99.90;;;;;;5129887;28;20244;-82
2023/10/23 04:43:17;;;;;;;9.67;9.37;;;6.30;99.90;;;;;;5133058;27;20288;-82
2023/10/23 04:45:45;;;;;;;9.90;9.60;;;6.30;99.90;;;;;;5134104;28;20216;-82
2023/10/23 04:48:12;;;;;;;10.00;9.70;;;6.30;99.90;;;;;;5134258;28;20225;-82
2023/10/23 04:50:40;;;;;;;10.00;9.70;;;6.20;99.90;;;;;;5133868;27;20255;-82
2023/10/23 04:53:09;;;;;;;9.70;9.40;;;6.20;99.90;;;;;;5138135;27;20216;-83
2023/10/23 04:55:39;;;;;;;9.37;9.07;;;6.20;99.90;;;;;;5135860;28;20286;-83
2023/10/23 04:58:08;;;;;;;9.70;9.40;;;6.20;99.90;;;;;;5139146;28;20288;-83
2023/10/23 05:00:36;;;;;;;9.70;9.40;;;6.10;99.90;;;;;;5136008;28;20292;-83
2023/10/23 05:03:04;;;;;;;9.60;9.30;;;6.10;99.90;;;;;;5134771;28;20244;-83
2023/10/23 05:05:31;;;;;;;9.40;9.10;;;6.10;99.90;;;;;;5133379;28;20315;-83
2023/10/23 05:07:59;;;;;;;9.50;9.20;;;6.10;99.90;;;;;;5133231;28;20221;-83
2023/10/23 05:10:28;;;;;;;9.60;9.30;;;6.00;99.90;;;;;;5127833;27;20237;-83
2023/10/23 05:12:55;;;;;;;9.30;9.00;;;6.00;99.90;;;;;;5134756;27;20229;-83
2023/10/23 05:15:23;;;;;;;9.60;9.30;;;6.00;99.90;;;;;;5132985;28;20228;-83
2023/10/23 05:17:51;;;;;;;9.30;9.00;;;6.00;99.90;;;;;;5111291;28;20235;-84
2023/10/23 05:20:18;;;;;;;9.50;9.20;;;6.00;99.90;;;;;;5112147;28;20233;-84
2023/10/23 05:22:45;;;;;;;9.30;9.00;;;6.00;99.90;;;;;;5112956;28;20256;-85
2023/10/23 05:25:12;;;;;;;9.60;9.30;;;6.00;99.90;;;;;;5113291;28;20229;-84
2023/10/23 05:27:41;;;;;;;9.67;9.37;;;6.00;99.90;;;;;;5113991;28;20234;-83
2023/10/23 05:30:09;;;;;;;9.60;9.30;;;6.00;99.90;;;;;;5113483;28;20229;-84
2023/10/23 05:32:37;;;;;;;9.80;9.50;;;6.00;99.90;;;;;;5113926;28;20226;-82
2023/10/23 05:35:06;;;;;;;9.90;9.60;;;6.00;99.90;;;;;;5112591;28;20415;-81
2023/10/23 05:37:35;;;;;;;10.50;10.20;;;6.00;99.90;;;;;;5115479;28;20386;-82
2023/10/23 05:40:04;;;;;;;10.13;9.83;;;6.00;99.90;;;;;;5134031;28;20232;-83
2023/10/23 05:42:32;;;;;;;10.17;9.87;;;6.10;99.90;;;;;;5136186;28;20221;-84
2023/10/23 05:45:02;;;;;;;10.20;9.90;;;6.10;99.90;;;;;;5136958;28;20225;-82
2023/10/23 05:47:29;;;;;;;9.83;9.53;;;6.10;99.90;;;;;;5137473;28;20216;-83
2023/10/23 05:49:56;;;;;;;9.97;9.67;;;6.10;99.90;;;;;;5136017;28;20231;-83
2023/10/23 05:52:24;;;;;;;9.90;9.60;;;6.00;99.90;;;;;;5131006;28;20236;-83
2023/10/23 05:54:51;;;;;;;10.10;9.80;;;6.00;99.90;;;;;;5127245;28;20251;-82
2023/10/23 05:57:18;;;;;;;9.90;9.60;;;6.00;99.90;;;;;;5129323;28;20279;-82
2023/10/23 05:59:45;;;;;;;9.93;9.63;;;6.00;99.90;;;;;;5130109;28;20232;-83
2023/10/23 06:02:14;;;;;;;9.70;9.40;;;6.00;99.90;;;;;;5130179;28;20249;-82
2023/10/23 06:04:43;;;;;;;9.13;8.83;;;5.90;99.90;;;;;;5129651;28;20224;-83
2023/10/23 06:07:11;;;;;;;9.73;9.43;;;5.90;99.90;;;;;;5130777;28;20228;-82
2023/10/23 06:09:39;;;;;;;9.70;9.40;;;6.00;99.90;;;;;;5130463;28;20233;-83
2023/10/23 06:12:09;;;;;;;9.90;9.60;;;5.90;99.90;;;;;;5130972;28;20220;-82
2023/10/23 06:14:36;;;;;;;9.83;9.53;;;5.90;99.90;;;;;;5130633;28;20225;-82
2023/10/23 06:17:03;;;;;;;9.50;9.20;;;5.90;99.90;;;;;;5130867;28;20270;-83
2023/10/23 06:19:32;;;;;;;9.70;9.40;;;6.00;99.90;;;;;;5131341;28;20271;-83
2023/10/23 06:22:00;;;;;;;9.70;9.40;;;6.00;99.90;;;;;;5130627;28;20236;-82
2023/10/23 06:24:28;;;;;;;9.57;9.27;;;6.00;99.90;;;;;;5130098;28;20260;-83
2023/10/23 06:26:55;;;;;;;9.57;9.27;;;6.00;99.90;;;;;;5131623;28;20266;-83
2023/10/23 06:29:23;;;;;;;9.80;9.50;;;6.00;99.90;;;;;;5128642;28;20236;-84
2023/10/23 06:31:50;;;;;;;9.50;9.20;;;6.00;99.90;;;;;;5109610;28;20255;-83
2023/10/23 06:34:17;;;;;;;9.07;8.77;;;6.00;99.90;;;;;;5112853;28;20229;-83
2023/10/23 06:36:46;;;;;;;8.90;8.70;;;6.10;99.90;;;;;;5130769;28;20252;-82
2023/10/23 06:39:13;;;;;;;9.30;9.00;;;6.10;99.90;;;;;;5130267;28;20225;-82
2023/10/23 06:41:40;;;;;;;9.20;8.90;;;6.10;99.90;;;;;;5131858;28;20221;-83
2023/10/23 06:44:08;;;;;;;9.20;8.90;;;6.10;99.90;;;;;;5130397;28;20241;-83
2023/10/23 06:46:35;;;;;;;9.30;9.00;;;6.10;99.90;;;;;;5130397;28;20217;-84
2023/10/23 06:49:03;;;;;;;9.40;9.10;;;6.10;99.90;;;;;;5129633;28;20254;-87
2023/10/23 06:51:30;;;;;;;9.40;9.10;;;6.10;99.90;;;;;;5128990;28;20260;-86
2023/10/23 06:53:59;;;;;;;9.23;8.93;;;6.20;99.90;;;;;;5128701;27;20236;-85
2023/10/23 06:56:26;;;;;;;9.30;9.00;;;6.30;99.90;;;;;;5127871;28;20320;-85
2023/10/23 06:58:53;;;;;;;9.83;9.53;;;6.40;99.90;;;;;;5128859;28;20286;-85
2023/10/23 07:01:22;;;;;;;9.50;9.20;;;6.40;99.90;;;;;;5128476;28;20316;-86
2023/10/23 07:03:49;;;;;;;9.43;9.13;;;6.50;99.90;;;;;;5127418;28;20681;-86
2023/10/23 07:06:17;;;;;;;9.23;8.93;;;6.60;99.90;;;;;;5128348;28;20213;-86
2023/10/23 07:08:44;;;;;;;9.07;8.77;;;6.70;99.90;;;;;;5131226;28;20225;-86
2023/10/23 07:11:18;;;;;;;9.70;9.40;;;6.80;99.90;;;;;;5127579;28;20260;-87
2023/10/23 07:13:46;;;;;;;9.93;9.63;;;6.80;99.90;;;;;;5129493;28;20228;-86
2023/10/23 07:16:14;;;;;;;9.57;9.27;;;6.90;99.90;;;;;;5130289;28;20208;-86
2023/10/23 07:18:41;;;;;;;9.80;9.50;;;6.90;99.90;;;;;;5130492;28;20258;-87
2023/10/23 07:21:09;;;;;;;9.80;9.50;;;6.90;99.90;;;;;;5131678;28;20231;-87
2023/10/23 07:23:36;;;;;;;9.40;9.10;;;6.90;99.90;;;;;;5132140;28;20249;-85
2023/10/23 07:26:07;;;;;;;9.30;9.00;;;7.00;99.90;;;;;;5137360;27;20217;-86
2023/10/23 07:28:38;;;;;;;9.60;9.30;;;7.10;99.90;;;;;;5140882;27;20251;-85
2023/10/23 07:31:05;;;;;;;9.60;9.30;;;7.20;99.90;;;;;;5140517;27;20212;-87
2023/10/23 07:33:33;;;;;;;10.40;10.10;;;7.30;99.90;;;;;;5138404;27;20220;-83
2023/10/23 07:36:02;;;;;;;9.97;9.67;;;7.40;99.90;;;;;;5140656;27;20215;-83
2023/10/23 07:38:29;;;;;;;10.23;9.93;;;7.50;99.90;;;;;;5140182;28;20236;-84
2023/10/23 07:40:57;;;;;;;10.30;10.00;;;7.60;99.90;;;;;;5139387;27;20259;-85
2023/10/23 07:43:25;;;;;;;10.17;9.87;;;7.70;99.90;;;;;;5140841;27;20212;-83
2023/10/23 07:45:54;;;;;;;10.23;9.93;;;7.80;99.90;;;;;;5141001;27;20247;-83
2023/10/23 07:48:24;;;;;;;10.13;9.83;;;8.00;99.90;;;;;;5141176;27;20260;-84
2023/10/23 07:50:51;;;;;;;10.03;9.73;;;8.00;99.90;;;;;;5138516;27;20233;-84
2023/10/23 07:53:18;;;;;;;10.10;9.80;;;8.20;99.90;;;;;;5140431;27;20209;-85
2023/10/23 07:55:46;;;;;;;10.30;10.00;;;8.30;99.90;;;;;;5139767;27;20208;-84
2023/10/23 07:58:13;;;;;;;10.40;10.10;;;8.40;99.90;;;;;;5139482;28;20221;-82
2023/10/23 08:00:40;;;;;;;10.10;9.80;;;8.50;99.90;;;;;;5137716;28;20317;-83
2023/10/23 08:03:09;;;;;;;10.00;9.70;;;8.60;99.90;;;;;;5134244;28;20205;-82
2023/10/23 08:05:36;;;;;;;10.50;10.20;;;8.70;99.90;;;;;;5138922;27;20224;-83
2023/10/23 08:08:04;;;;;;;10.40;10.10;;;8.80;99.90;;;;;;5139272;27;20256;-82
2023/10/23 08:10:32;;;;;;;10.87;10.57;;;8.90;99.90;;;;;;5138222;27;20228;-84
2023/10/23 08:12:59;;;;;;;10.60;10.30;;;9.00;99.90;;;;;;5139629;28;20224;-83
2023/10/23 08:15:26;;;;;;;10.17;9.87;;;9.10;99.90;;;;;;5139459;27;20204;-85
2023/10/23 08:17:53;;;;;;;10.30;10.00;;;9.20;99.90;;;;;;5141180;27;20247;-87
2023/10/23 08:20:22;;;;;;;9.90;9.60;;;9.30;99.90;;;;;;5143035;27;20236;-85
2023/10/23 08:22:52;;;;;;;9.90;9.60;;;9.50;99.90;;;;;;5140024;27;20231;-87
2023/10/23 08:28:09;;;;;;;10.10;9.80;;;9.90;99.90;;;;;;5129038;28;20271;-87
2023/10/23 08:30:40;;;;;;;10.50;10.20;;;10.00;99.90;;;;;;5129146;28;20263;-87
2023/10/23 08:33:09;;;;;;;10.40;10.10;;;10.20;99.90;;;;;;5129436;28;20225;-87
2023/10/23 08:35:43;;;;;;;10.30;10.00;;;10.50;99.90;;;;;;5129433;28;20243;-85
2023/10/23 08:38:13;;;;;;;10.50;10.20;;;10.70;99.90;;;;;;5129821;28;20259;-85
2023/10/23 08:40:41;;;;;;;10.73;10.43;;;10.90;99.90;;;;;;5129717;28;20240;-86
2023/10/23 08:43:09;;;;;;;10.77;10.47;;;11.10;99.90;;;;;;5131128;28;20217;-86
2023/10/23 08:45:37;;;;;;;10.30;10.00;;;11.40;99.90;;;;;;5140438;28;20215;-84
2023/10/23 08:48:05;;;;;;;10.40;10.10;;;11.60;99.90;;;;;;5136954;28;20282;-85
2023/10/23 08:50:32;;;;;;;10.20;9.90;;;11.80;99.90;;;;;;5137842;28;20236;-85
2023/10/23 08:53:09;;;;;;;10.20;9.90;;;11.80;99.90;;;;;;5139577;28;20221;-82
2023/10/23 08:55:37;;;;;;;10.40;10.10;;;12.00;99.90;;;;;;5131820;28;20339;-79
2023/10/23 08:58:06;;;;;;;10.40;10.10;;;12.20;99.90;;;;;;5127637;28;20304;-80
2023/10/23 09:00:34;;;;;;;10.90;10.60;;;12.40;99.90;;;;;;5127015;28;20290;-81
2023/10/23 09:03:04;;;;;;;10.67;10.37;;;12.50;99.90;;;;;;5134173;28;20232;-82
2023/10/23 09:05:31;;;;;;;10.40;10.10;;;12.70;99.90;;;;;;5129691;28;20266;-80
2023/10/23 09:08:00;;;;;;;10.53;10.23;;;13.00;99.90;;;;;;5128681;28;20225;-81
2023/10/23 09:10:28;;;;;;;10.57;10.27;;;13.30;99.90;;;;;;5124517;28;20236;-83
2023/10/23 09:12:57;;;;;;;10.77;10.47;;;13.40;99.90;;;;;;5106817;28;20285;-82
2023/10/23 09:15:24;;;;;;;10.37;10.07;;;13.60;99.90;;;;;;5106278;28;20233;-85
2023/10/23 09:17:53;;;;;;;10.30;10.00;;;13.60;99.90;;;;;;5105941;28;20229;-80
2023/10/23 09:20:26;;;;;;;10.20;9.90;;;13.70;99.90;;;;;;5105858;28;20237;-82
2023/10/23 09:22:54;;;;;;;10.30;10.00;;;13.80;99.90;;;;;;5108480;28;20268;-82
2023/10/23 09:25:23;;;;;;;10.17;9.87;;;13.90;99.90;;;;;;5105471;28;20213;-81
2023/10/23 09:27:51;;;;;;;10.40;10.10;;;14.00;99.90;;;;;;5105497;28;20229;-80
2023/10/23 09:30:22;;;;;;;10.33;10.03;;;14.00;99.90;;;;;;5105841;28;20287;-82
2023/10/23 09:32:53;;;;;;;10.47;10.17;;;13.80;99.90;;;;;;5105956;28;20226;-82
2023/10/23 09:35:21;;;;;;;11.00;10.70;;;13.70;99.90;;;;;;5104399;28;20285;-81
2023/10/23 09:37:48;;;;;;;10.60;10.30;;;13.70;99.90;;;;;;5104711;28;20237;-81
2023/10/23 09:40:17;;;;;;;10.57;10.27;;;13.70;99.90;;;;;;5104209;28;20276;-82
2023/10/23 09:42:46;;;;;;;10.40;10.10;;;13.80;99.90;;;;;;5104788;28;20309;-81
2023/10/23 09:45:15;;;;;;;10.30;10.00;;;13.90;99.90;;;;;;5104271;28;20209;-83
2023/10/23 09:47:42;;;;;;;10.43;10.13;;;14.00;99.90;;;;;;5104635;28;20225;-81
2023/10/23 09:50:11;;;;;;;10.50;10.20;;;14.10;99.90;;;;;;5104051;28;20324;-81
2023/10/23 09:52:38;;;;;;;10.20;9.90;;;14.20;99.90;;;;;;5103765;28;20240;-79
2023/10/23 09:55:08;;;;;;;10.23;9.93;;;14.40;99.90;;;;;;5103087;28;20256;-79
2023/10/23 09:57:38;;;;;;;10.20;9.90;;;14.50;99.90;;;;;;5103619;28;20292;-79
2023/10/23 10:00:14;;;;;;;10.40;10.10;;;14.70;99.90;;;;;;5102460;28;20249;-79
2023/10/23 10:02:45;;;;;;;10.40;10.10;;;14.80;99.90;;;;;;5102782;28;20225;-78
2023/10/23 10:05:18;;;;;;;10.50;10.20;;;14.80;99.90;;;;;;5103280;28;20252;-80
2023/10/23 10:07:59;;;;;;;10.47;10.17;;;14.90;99.90;;;;;;5104183;28;20325;-81
2023/10/23 10:10:28;;;;;;;10.37;10.07;;;15.00;99.90;;;;;;5102908;28;20237;-81
2023/10/23 10:12:56;;;;;;;10.40;10.10;;;15.20;99.90;;;;;;5104220;28;20221;-82
2023/10/23 10:15:26;;;;;;;10.40;10.10;;;15.30;99.90;;;;;;5103711;28;20221;-81
2023/10/23 10:17:53;;;;;;;10.65;10.35;;;15.30;99.90;;;;;;5103747;28;20252;-81
2023/10/23 10:20:22;;;;;;;10.68;10.38;;;15.50;99.90;;;;;;5102663;28;20261;-81
2023/10/23 10:22:57;;;;;;;10.60;10.30;;;15.70;99.90;;;;;;5114396;28;20220;-82
2023/10/23 10:25:26;;;;;;;10.10;9.80;;;15.90;99.90;;;;;;5124639;28;20773;-81
2023/10/23 10:27:57;;;;;;;10.40;10.10;;;16.00;99.90;;;;;;5116731;27;20224;-81
2023/10/23 10:30:49;;;;;;;10.60;10.30;;;16.10;99.90;;;;;;5123722;27;20228;-82
2023/10/23 10:33:22;;;;;;;10.07;9.77;;;16.20;99.90;;;;;;5098389;27;20293;-81
2023/10/23 10:35:51;;;;;;;10.38;10.07;;;16.20;99.90;;;;;;5103236;27;20225;-81
2023/10/23 10:38:22;;;;;;;10.20;9.90;;;16.20;99.90;;;;;;5119505;27;20233;-81
2023/10/23 10:40:58;;;;;;;10.30;10.00;;;16.30;99.90;;;;;;5114489;27;20290;-81
2023/10/23 10:43:26;;;;;;;9.90;9.60;;;16.40;99.90;;;;;;5106897;27;20268;-81
2023/10/23 10:45:56;;;;;;;10.00;9.70;;;16.40;99.90;;;;;;5113635;27;20221;-82
2023/10/23 10:48:25;;;;;;;10.10;9.80;;;16.30;99.90;;;;;;5122804;27;20229;-81
2023/10/23 10:50:54;;;;;;;10.40;10.10;;;16.30;99.90;;;;;;5115399;27;20237;-81
2023/10/23 10:53:25;;;;;;;10.25;9.95;;;16.30;99.90;;;;;;5106737;27;20218;-81
2023/10/23 10:55:53;;;;;;;10.30;10.00;;;16.40;99.90;;;;;;5107308;27;20225;-82
2023/10/23 10:58:22;;;;;;;9.80;9.50;;;16.50;99.90;;;;;;5105240;27;20233;-81
2023/10/23 11:00:49;;;;;;;9.73;9.43;;;16.60;99.90;;;;;;5116663;27;20301;-81
2023/10/23 11:03:18;;;;;;;10.05;9.75;;;16.60;99.90;;;;;;5105465;27;20260;-81
2023/10/23 11:05:47;;;;;;;10.23;9.93;;;16.70;99.90;;;;;;5111202;27;20220;-81
2023/10/23 11:08:16;;;;;;;9.98;9.68;;;16.80;99.90;;;;;;5112449;27;20293;-82
2023/10/23 11:10:44;;;;;;;10.15;9.85;;;16.70;99.90;;;;;;5116404;27;20256;-82
2023/10/23 11:13:15;;;;;;;9.90;9.60;;;16.80;99.90;;;;;;5115095;27;20320;-81
2023/10/23 11:15:42;;;;;;;9.70;9.40;;;16.90;99.90;;;;;;5104544;27;20950;-80
2023/10/23 11:18:10;;;;;;;9.77;9.48;;;17.00;99.90;;;;;;5109040;27;20320;-82
2023/10/23 11:20:38;;;;;;;9.85;9.55;;;17.00;99.90;;;;;;5119565;27;20308;-81
2023/10/23 11:23:05;;;;;;;9.88;9.57;;;17.10;99.90;;;;;;5108066;27;20296;-81
2023/10/23 11:25:34;;;;;;;9.70;9.40;;;17.20;99.90;;;;;;5105624;27;20221;-81
2023/10/23 11:28:06;;;;;;;9.90;9.60;;;17.40;99.90;;;;;;5117027;28;20284;-82
2023/10/23 11:30:46;;;;;;;9.77;9.48;;;17.50;99.90;;;;;;5114727;27;20240;-82
2023/10/23 11:33:15;;;;;;;9.90;9.60;;;17.60;99.90;;;;;;5118607;27;20292;-82
2023/10/23 11:35:44;;;;;;;9.85;9.55;;;17.60;99.90;;;;;;5113659;27;20233;-82
2023/10/23 11:38:14;;;;;;;9.90;9.60;;;17.60;99.90;;;;;;5104228;27;20230;-82
2023/10/23 11:40:43;;;;;;;9.90;9.60;;;17.70;99.90;;;;;;5116237;27;20297;-82
2023/10/23 11:43:11;;;;;;;10.10;9.80;;;17.60;99.90;;;;;;5124044;27;20235;-82
2023/10/23 11:45:40;;;;;;;10.30;10.00;;;17.60;99.90;;;;;;5113793;27;20225;-82
2023/10/23 11:48:08;;;;;;;10.00;9.70;;;17.60;99.90;;;;;;5132277;27;20235;-82
2023/10/23 11:50:36;;;;;;;9.90;9.60;;;17.60;99.90;;;;;;5125910;27;20232;-82
2023/10/23 11:53:05;;;;;;;10.10;9.80;;;17.60;99.90;;;;;;5122463;28;20231;-82
2023/10/23 11:55:33;;;;;;;9.80;9.50;;;17.60;99.90;;;;;;5124608;28;20284;-83
2023/10/23 11:58:03;;;;;;;9.85;9.55;;;17.60;99.90;;;;;;5123470;28;20220;-81
2023/10/23 12:00:33;;;;;;;9.90;9.60;;;17.60;99.90;;;;;;5126659;27;20243;-81
2023/10/23 12:03:00;;;;;;;10.23;9.93;;;17.70;99.90;;;;;;5126750;27;20224;-81
2023/10/23 12:05:28;;;;;;;9.88;9.57;;;17.80;99.90;;;;;;5131597;27;20228;-79
2023/10/23 12:07:56;;;;;;;10.07;9.77;;;17.90;99.90;;;;;;5122309;27;20227;-78
2023/10/23 12:10:26;;;;;;;10.32;10.02;;;17.80;99.90;;;;;;5121117;28;20240;-79
2023/10/23 12:12:55;;;;;;;10.30;10.00;;;17.70;99.90;;;;;;5123053;28;20236;-78
2023/10/23 12:15:24;;;;;;;10.18;9.88;;;17.60;99.90;;;;;;5122248;28;20278;-80
2023/10/23 12:17:51;;;;;;;10.50;10.20;;;17.50;99.90;;;;;;5122124;28;20414;-79
2023/10/23 12:20:21;;;;;;;10.25;9.95;;;17.30;99.90;;;;;;5121376;28;20304;-79
2023/10/23 12:22:49;;;;;;;10.10;9.80;;;17.30;99.90;;;;;;5123820;28;20280;-80
2023/10/23 12:25:17;;;;;;;10.57;10.27;;;17.20;99.90;;;;;;5122657;28;20316;-80
2023/10/23 12:27:45;;;;;;;10.10;9.80;;;17.10;99.90;;;;;;5121619;28;20240;-80
2023/10/23 12:30:14;;;;;;;10.25;9.95;;;17.00;99.90;;;;;;5121509;28;20319;-80
2023/10/23 12:32:42;;;;;;;9.90;9.60;;;16.90;99.90;;;;;;5121863;28;20383;-79
2023/10/23 12:35:10;;;;;;;10.00;9.70;;;16.90;99.90;;;;;;5121206;28;20229;-80
2023/10/23 12:37:39;;;;;;;9.85;9.55;;;16.90;99.90;;;;;;5123571;28;20286;-80
2023/10/23 12:40:10;;;;;;;9.70;9.40;;;16.90;99.90;;;;;;5121154;28;20237;-81
2023/10/23 12:42:39;;;;;;;9.68;9.38;;;16.80;99.90;;;;;;5123553;28;20236;-81
2023/10/23 12:45:10;;;;;;;10.10;9.80;;;16.70;99.90;;;;;;5122251;28;20225;-81
2023/10/23 12:47:37;;;;;;;9.90;9.60;;;16.60;99.90;;;;;;5122590;28;20323;-81
2023/10/23 12:50:05;;;;;;;9.90;9.60;;;16.50;99.90;;;;;;5122187;28;20259;-81
2023/10/23 12:52:33;;;;;;;10.10;9.80;;;16.50;99.90;;;;;;5123271;28;20295;-80